Time;durP1;ratioP1;P1;durP2;ratioP2;P2;SDS_P1;SDS_P2;PMS_P1;PMS_P2;Temp;Humidity;BMP_temperature;BMP_pressure;BME280_temperature;BME280_humidity;BME280_pressure;Samples;Min_cycle;Max_cycle;Signal;HPM_P1;HPM_P2
2023/07/19 00:01:52;;;;;;;4.20;2.60;;;16.70;99.90;;;;;;5015749;28;20045;-79
2023/07/19 00:04:17;;;;;;;4.63;2.65;;;16.80;99.90;;;;;;5032672;28;20115;-79
2023/07/19 00:06:43;;;;;;;4.15;2.80;;;16.70;99.90;;;;;;5047897;28;20078;-79
2023/07/19 00:09:08;;;;;;;4.93;2.90;;;16.70;99.90;;;;;;5020437;28;20037;-79
2023/07/19 00:11:34;;;;;;;4.15;2.65;;;16.70;99.90;;;;;;5027701;28;20045;-78
2023/07/19 00:14:00;;;;;;;6.78;3.17;;;16.70;99.90;;;;;;5032091;28;20051;-78
2023/07/19 00:16:27;;;;;;;6.72;3.20;;;16.70;99.90;;;;;;5015780;28;20048;-79
2023/07/19 00:18:53;;;;;;;3.42;2.80;;;16.70;99.90;;;;;;5011179;28;20053;-79
2023/07/19 00:21:19;;;;;;;5.70;3.35;;;16.70;99.90;;;;;;5011507;28;20046;-79
2023/07/19 00:23:44;;;;;;;6.00;3.13;;;16.70;99.90;;;;;;5023376;28;20124;-78
2023/07/19 00:26:10;;;;;;;3.88;3.08;;;16.70;99.90;;;;;;5032230;28;20042;-78
2023/07/19 00:28:36;;;;;;;3.50;2.88;;;16.70;99.90;;;;;;5031104;28;20095;-78
2023/07/19 00:31:03;;;;;;;5.85;3.30;;;16.70;99.90;;;;;;5032256;28;20397;-78
2023/07/19 00:33:29;;;;;;;4.47;2.78;;;16.70;99.90;;;;;;5047664;28;20037;-79
2023/07/19 00:35:55;;;;;;;4.30;2.92;;;16.70;99.90;;;;;;5046875;28;20053;-78
2023/07/19 00:38:21;;;;;;;5.25;3.38;;;16.70;99.90;;;;;;5023171;28;20085;-78
2023/07/19 00:40:50;;;;;;;4.53;3.03;;;16.70;99.90;;;;;;5013391;28;20448;-78
2023/07/19 00:43:16;;;;;;;4.03;2.47;;;16.70;99.90;;;;;;5023605;28;20113;-79
2023/07/19 00:45:53;;;;;;;4.68;2.58;;;16.70;99.90;;;;;;5020623;28;20513;-79
2023/07/19 00:48:20;;;;;;;3.10;2.40;;;16.70;99.90;;;;;;5034599;28;20416;-79
2023/07/19 00:50:50;;;;;;;4.35;2.33;;;16.80;99.90;;;;;;5028704;28;20037;-78
2023/07/19 00:53:17;;;;;;;4.82;2.70;;;16.70;99.90;;;;;;5016141;28;20046;-78
2023/07/19 00:55:49;;;;;;;4.03;2.50;;;16.70;99.90;;;;;;5030066;28;20056;-79
2023/07/19 00:58:15;;;;;;;3.10;2.25;;;16.70;99.90;;;;;;5031585;28;20064;-79
2023/07/19 01:00:41;;;;;;;5.32;2.58;;;16.80;99.90;;;;;;5024733;28;20049;-78
2023/07/19 01:03:07;;;;;;;3.63;2.33;;;16.80;99.90;;;;;;5019511;28;20037;-78
2023/07/19 01:05:33;;;;;;;4.68;2.45;;;16.80;99.90;;;;;;5017955;28;20041;-79
2023/07/19 01:07:59;;;;;;;3.90;2.38;;;16.80;99.90;;;;;;5025493;28;20045;-79
2023/07/19 01:10:26;;;;;;;3.95;2.60;;;16.80;99.90;;;;;;5017995;28;20052;-78
2023/07/19 01:13:06;;;;;;;4.72;2.50;;;16.80;99.90;;;;;;5025327;28;20099;-78
2023/07/19 01:15:32;;;;;;;6.63;3.47;;;16.80;99.90;;;;;;5022696;28;20077;-79
2023/07/19 01:17:58;;;;;;;3.72;2.60;;;16.80;99.90;;;;;;5034651;28;20049;-79
2023/07/19 01:20:23;;;;;;;3.67;2.60;;;16.80;99.90;;;;;;5016322;28;20042;-79
2023/07/19 01:22:49;;;;;;;3.00;2.47;;;16.70;99.90;;;;;;5014368;28;20045;-79
2023/07/19 01:25:15;;;;;;;4.03;2.85;;;16.80;99.90;;;;;;5030594;28;20044;-79
2023/07/19 01:27:41;;;;;;;4.97;2.50;;;16.70;99.90;;;;;;5035330;28;20040;-79
2023/07/19 01:30:07;;;;;;;2.92;2.28;;;16.80;99.90;;;;;;5035023;28;20497;-78
2023/07/19 01:32:33;;;;;;;4.07;2.70;;;16.70;99.90;;;;;;5044951;28;20046;-78
2023/07/19 01:34:58;;;;;;;3.80;2.70;;;16.70;99.90;;;;;;5015043;28;20030;-78
2023/07/19 01:37:24;;;;;;;3.75;2.65;;;16.70;99.90;;;;;;5024738;28;20049;-79
2023/07/19 01:39:50;;;;;;;3.25;2.35;;;16.70;99.90;;;;;;5017823;28;20383;-79
2023/07/19 01:42:16;;;;;;;7.95;2.95;;;16.60;99.90;;;;;;5014741;28;20038;-78
2023/07/19 01:44:42;;;;;;;4.65;2.65;;;16.60;99.90;;;;;;5018238;28;20042;-78
2023/07/19 01:47:08;;;;;;;4.40;2.33;;;16.70;99.90;;;;;;5016566;28;20053;-78
2023/07/19 01:49:35;;;;;;;4.80;2.75;;;16.60;99.90;;;;;;5032944;28;20087;-79
2023/07/19 01:52:00;;;;;;;3.20;2.22;;;16.50;99.90;;;;;;5049756;28;20111;-79
2023/07/19 01:54:26;;;;;;;4.03;2.45;;;16.50;99.90;;;;;;5033103;28;20042;-79
2023/07/19 01:56:52;;;;;;;4.95;2.63;;;16.40;99.90;;;;;;5014784;28;20038;-79
2023/07/19 01:59:17;;;;;;;4.28;2.28;;;16.40;99.90;;;;;;5014668;28;20072;-79
2023/07/19 02:01:43;;;;;;;3.35;2.50;;;16.40;99.90;;;;;;5014736;28;20391;-79
2023/07/19 02:04:09;;;;;;;4.03;2.00;;;16.40;99.90;;;;;;5013999;28;20685;-79
2023/07/19 02:06:35;;;;;;;4.22;2.60;;;16.40;99.90;;;;;;5013372;28;20527;-79
2023/07/19 02:09:00;;;;;;;5.10;2.42;;;16.40;99.90;;;;;;5013622;28;20042;-79
2023/07/19 02:11:26;;;;;;;3.00;2.20;;;16.40;99.90;;;;;;5017097;28;20041;-79
2023/07/19 02:13:52;;;;;;;3.55;2.63;;;16.40;99.90;;;;;;5018006;28;20108;-79
2023/07/19 02:16:18;;;;;;;3.20;2.50;;;16.50;99.90;;;;;;5016981;28;20041;-79
2023/07/19 02:18:43;;;;;;;4.80;2.38;;;16.40;99.90;;;;;;5019517;28;20041;-78
2023/07/19 02:21:09;;;;;;;4.15;2.60;;;16.40;99.90;;;;;;5030613;28;20038;-79
2023/07/19 02:23:35;;;;;;;3.10;2.33;;;16.30;99.90;;;;;;5014256;28;20476;-79
2023/07/19 02:26:01;;;;;;;5.50;2.50;;;16.40;99.90;;;;;;5014482;28;20046;-79
2023/07/19 02:28:26;;;;;;;4.13;2.45;;;16.40;99.90;;;;;;5028442;28;20048;-78
2023/07/19 02:30:52;;;;;;;4.30;2.55;;;16.30;99.90;;;;;;5018291;28;20069;-78
2023/07/19 02:33:18;;;;;;;4.43;2.60;;;16.30;99.90;;;;;;5013112;28;20045;-78
2023/07/19 02:35:43;;;;;;;3.08;2.25;;;16.20;99.90;;;;;;4996187;28;20513;-78
2023/07/19 02:38:10;;;;;;;5.15;2.33;;;16.10;99.90;;;;;;5028998;28;20049;-80
2023/07/19 02:40:37;;;;;;;4.35;2.05;;;16.10;99.90;;;;;;5013972;28;20183;-80
2023/07/19 02:43:03;;;;;;;3.60;2.10;;;16.00;99.90;;;;;;5019034;28;20284;-79
2023/07/19 02:45:28;;;;;;;2.92;2.00;;;15.90;99.90;;;;;;5013013;28;20482;-79
2023/07/19 02:47:54;;;;;;;3.53;2.00;;;15.90;99.90;;;;;;5029092;28;20068;-79
2023/07/19 02:50:20;;;;;;;3.28;1.88;;;15.90;99.90;;;;;;5049100;28;20042;-78
2023/07/19 02:52:46;;;;;;;4.72;2.10;;;15.90;99.90;;;;;;5046198;28;20050;-78
2023/07/19 02:55:12;;;;;;;3.60;2.10;;;15.80;99.90;;;;;;5012659;28;20398;-79
2023/07/19 02:57:38;;;;;;;4.85;2.08;;;15.80;99.90;;;;;;5024014;28;20045;-78
2023/07/19 03:00:06;;;;;;;3.33;1.90;;;15.70;99.90;;;;;;5029177;28;20115;-78
2023/07/19 03:02:32;;;;;;;4.45;2.10;;;15.70;99.90;;;;;;5013063;28;20084;-78
2023/07/19 03:04:58;;;;;;;5.13;2.45;;;15.70;99.90;;;;;;5021289;28;20041;-78
2023/07/19 03:07:24;;;;;;;3.35;2.60;;;15.70;99.90;;;;;;5018203;28;20534;-79
2023/07/19 03:09:50;;;;;;;4.72;2.67;;;15.60;99.90;;;;;;5030214;28;20038;-78
2023/07/19 03:12:16;;;;;;;3.85;2.90;;;15.60;99.90;;;;;;5011911;28;20044;-79
2023/07/19 03:14:42;;;;;;;4.25;2.85;;;15.50;99.90;;;;;;5013425;28;20125;-78
2023/07/19 03:17:08;;;;;;;5.00;2.97;;;15.60;99.90;;;;;;5018839;28;20459;-79
2023/07/19 03:19:35;;;;;;;5.03;2.85;;;15.60;99.90;;;;;;5029948;28;20037;-79
2023/07/19 03:22:01;;;;;;;4.65;3.30;;;15.60;99.90;;;;;;5015664;28;20494;-79
2023/07/19 03:24:27;;;;;;;5.10;3.40;;;15.50;99.90;;;;;;5015322;28;20030;-78
2023/07/19 03:26:53;;;;;;;4.63;3.50;;;15.50;99.90;;;;;;5021884;28;20175;-78
2023/07/19 03:29:19;;;;;;;7.00;3.70;;;15.50;99.90;;;;;;5022789;28;20066;-79
2023/07/19 03:31:45;;;;;;;4.25;3.83;;;15.50;99.90;;;;;;5018417;28;20057;-79
2023/07/19 03:34:11;;;;;;;6.38;3.80;;;15.50;99.90;;;;;;5013353;28;20034;-78
2023/07/19 03:36:37;;;;;;;4.28;3.70;;;15.50;99.90;;;;;;5018068;28;20029;-79
2023/07/19 03:39:03;;;;;;;4.70;3.83;;;15.50;99.90;;;;;;5025401;28;20044;-78
2023/07/19 03:41:29;;;;;;;5.28;4.13;;;15.50;99.90;;;;;;5011607;28;20045;-78
2023/07/19 03:43:55;;;;;;;7.43;4.53;;;15.50;99.90;;;;;;5028770;28;20037;-79
2023/07/19 03:46:21;;;;;;;6.72;4.50;;;15.50;99.90;;;;;;5026610;28;20048;-78
2023/07/19 03:48:46;;;;;;;5.68;4.15;;;15.60;99.90;;;;;;5019967;28;20077;-78
2023/07/19 03:51:12;;;;;;;6.57;4.40;;;15.60;99.90;;;;;;5024345;28;20098;-79
2023/07/19 03:53:38;;;;;;;6.75;4.50;;;15.60;99.90;;;;;;5035390;28;20057;-79
2023/07/19 03:56:04;;;;;;;6.40;4.43;;;15.60;99.90;;;;;;5012628;28;20046;-79
2023/07/19 03:58:30;;;;;;;5.70;4.45;;;15.60;99.90;;;;;;5027478;28;20099;-79
2023/07/19 04:00:59;;;;;;;5.45;4.60;;;15.60;99.90;;;;;;5030679;28;20081;-78
2023/07/19 04:03:29;;;;;;;5.72;4.97;;;15.60;99.90;;;;;;5031040;28;20041;-78
2023/07/19 04:05:57;;;;;;;6.63;5.28;;;15.70;99.90;;;;;;5028453;28;20105;-79
2023/07/19 04:08:23;;;;;;;7.18;4.70;;;15.60;99.90;;;;;;5017793;28;20456;-78
2023/07/19 04:10:49;;;;;;;5.68;5.03;;;15.70;99.90;;;;;;5031080;28;20043;-78
2023/07/19 04:13:14;;;;;;;7.63;6.07;;;15.70;99.90;;;;;;5030293;28;20037;-78
2023/07/19 04:15:40;;;;;;;6.82;5.40;;;15.60;99.90;;;;;;5033302;28;20041;-78
2023/07/19 04:18:06;;;;;;;8.95;6.15;;;15.60;99.90;;;;;;5032393;28;20129;-80
2023/07/19 04:20:33;;;;;;;7.45;6.10;;;15.60;99.90;;;;;;5030684;28;20072;-78
2023/07/19 04:22:59;;;;;;;7.38;6.20;;;15.60;99.90;;;;;;5026144;28;20041;-77
2023/07/19 04:25:24;;;;;;;8.90;6.00;;;15.60;99.90;;;;;;5016280;28;20560;-76
2023/07/19 04:27:51;;;;;;;6.85;6.20;;;15.60;99.90;;;;;;5016336;28;20044;-76
2023/07/19 04:30:17;;;;;;;7.38;6.57;;;15.60;99.90;;;;;;5015559;28;20049;-77
2023/07/19 04:32:43;;;;;;;7.95;6.38;;;15.50;99.90;;;;;;5016108;28;20046;-77
2023/07/19 04:35:09;;;;;;;8.68;6.57;;;15.50;99.90;;;;;;5016128;28;20100;-77
2023/07/19 04:37:35;;;;;;;11.93;6.82;;;15.60;99.90;;;;;;5035457;28;20138;-77
2023/07/19 04:40:01;;;;;;;8.00;6.65;;;15.50;99.90;;;;;;5033387;28;20034;-77
2023/07/19 04:42:28;;;;;;;11.27;6.25;;;15.60;99.90;;;;;;5020865;28;20429;-76
2023/07/19 04:44:54;;;;;;;9.38;5.88;;;15.60;99.90;;;;;;5016116;28;20037;-76
2023/07/19 04:47:20;;;;;;;7.53;6.22;;;15.60;99.90;;;;;;5025599;28;20038;-77
2023/07/19 04:49:45;;;;;;;8.68;6.32;;;15.60;99.90;;;;;;5029416;28;20045;-77
2023/07/19 04:52:11;;;;;;;7.82;6.15;;;15.60;99.90;;;;;;5051205;28;20544;-77
2023/07/19 04:54:37;;;;;;;10.05;6.20;;;15.60;99.90;;;;;;5035551;28;20044;-78
2023/07/19 04:57:03;;;;;;;6.32;5.70;;;15.70;99.90;;;;;;5026090;28;20064;-77
2023/07/19 04:59:29;;;;;;;8.60;6.57;;;15.70;99.90;;;;;;5014825;28;20467;-77
2023/07/19 05:01:54;;;;;;;9.88;6.97;;;15.70;99.90;;;;;;5031505;28;20053;-77
2023/07/19 05:04:20;;;;;;;9.88;6.68;;;15.70;99.90;;;;;;5033886;28;20072;-76
2023/07/19 05:06:46;;;;;;;7.80;6.05;;;15.80;99.90;;;;;;5014839;28;20049;-77
2023/07/19 05:09:12;;;;;;;7.93;5.72;;;15.90;99.90;;;;;;5029047;28;20037;-76
2023/07/19 05:11:39;;;;;;;8.00;5.90;;;16.00;99.90;;;;;;5020623;28;20042;-77
2023/07/19 05:14:05;;;;;;;7.82;6.13;;;16.00;99.90;;;;;;5015266;28;20049;-77
2023/07/19 05:16:33;;;;;;;9.35;6.38;;;16.00;99.90;;;;;;5015857;28;20394;-79
2023/07/19 05:18:59;;;;;;;6.80;6.10;;;16.10;99.90;;;;;;5018315;28;20050;-77
2023/07/19 05:21:25;;;;;;;9.20;6.30;;;16.10;99.90;;;;;;5016865;28;20103;-77
2023/07/19 05:23:50;;;;;;;9.40;6.03;;;16.20;99.90;;;;;;5026601;28;20041;-79
2023/07/19 05:26:16;;;;;;;7.95;5.85;;;16.20;99.90;;;;;;5034489;28;20045;-78
2023/07/19 05:28:42;;;;;;;7.50;5.43;;;16.20;99.90;;;;;;5012320;28;20469;-80
2023/07/19 05:31:08;;;;;;;8.43;5.82;;;16.20;99.90;;;;;;5028150;28;20374;-79
2023/07/19 05:33:34;;;;;;;9.02;5.32;;;16.20;99.90;;;;;;5034760;28;20096;-78
2023/07/19 05:36:00;;;;;;;7.95;5.32;;;16.30;99.90;;;;;;5016764;28;20430;-79
2023/07/19 05:38:26;;;;;;;7.15;5.07;;;16.30;99.90;;;;;;5033510;28;20057;-78
2023/07/19 05:40:52;;;;;;;6.05;4.20;;;16.30;99.90;;;;;;5017384;28;20045;-78
2023/07/19 05:43:18;;;;;;;6.07;4.70;;;16.30;99.90;;;;;;5025513;28;20486;-78
2023/07/19 05:45:44;;;;;;;5.57;4.25;;;16.30;99.90;;;;;;5033757;28;20077;-77
2023/07/19 05:48:10;;;;;;;5.90;4.10;;;16.30;99.90;;;;;;5034714;28;20050;-78
2023/07/19 05:50:37;;;;;;;6.32;4.00;;;16.20;99.90;;;;;;5033716;28;20358;-79
2023/07/19 05:53:03;;;;;;;5.50;4.07;;;16.20;99.90;;;;;;5034627;28;20096;-78
2023/07/19 05:55:29;;;;;;;7.22;4.53;;;16.20;99.90;;;;;;5022497;28;20447;-78
2023/07/19 05:57:55;;;;;;;7.53;3.55;;;16.20;99.90;;;;;;5027194;28;20359;-79
2023/07/19 06:00:28;;;;;;;5.20;4.03;;;16.20;99.90;;;;;;5034611;28;20094;-77
2023/07/19 06:02:57;;;;;;;4.82;3.75;;;16.10;99.90;;;;;;5032998;28;20041;-78
2023/07/19 06:05:24;;;;;;;6.65;3.75;;;16.10;99.90;;;;;;5013477;28;20394;-79
2023/07/19 06:07:50;;;;;;;8.05;3.88;;;16.10;99.90;;;;;;5014120;28;20045;-78
2023/07/19 06:10:16;;;;;;;4.15;3.33;;;16.00;99.90;;;;;;5025256;28;20500;-75
2023/07/19 06:12:44;;;;;;;4.95;3.20;;;16.00;99.90;;;;;;5015555;28;20042;-78
2023/07/19 06:15:10;;;;;;;5.97;2.92;;;16.00;99.90;;;;;;5016693;28;20374;-78
2023/07/19 06:17:36;;;;;;;4.47;2.92;;;15.90;99.90;;;;;;5029685;28;20049;-77
2023/07/19 06:20:04;;;;;;;5.57;3.10;;;15.90;99.90;;;;;;5023353;28;20083;-76
2023/07/19 06:22:31;;;;;;;5.05;2.70;;;15.90;99.90;;;;;;5018873;28;20046;-75
2023/07/19 06:24:59;;;;;;;4.65;2.90;;;16.00;99.90;;;;;;5017881;28;20479;-75
2023/07/19 06:27:25;;;;;;;3.97;2.47;;;15.90;99.90;;;;;;5014626;28;20049;-75
2023/07/19 06:29:51;;;;;;;3.42;2.42;;;16.00;99.90;;;;;;5018221;28;20041;-75
2023/07/19 06:32:17;;;;;;;3.58;2.15;;;16.00;99.90;;;;;;5030590;28;20044;-75
2023/07/19 06:34:43;;;;;;;5.18;2.53;;;16.00;99.90;;;;;;5032628;28;20152;-74
2023/07/19 06:37:09;;;;;;;5.20;2.50;;;16.10;99.90;;;;;;5031926;28;20144;-75
2023/07/19 06:39:34;;;;;;;3.85;2.50;;;16.10;99.90;;;;;;5033662;28;20482;-75
2023/07/19 06:42:00;;;;;;;3.45;2.40;;;16.20;99.90;;;;;;5033662;28;20046;-75
2023/07/19 06:44:26;;;;;;;3.35;2.30;;;16.30;99.90;;;;;;5032287;28;20388;-75
2023/07/19 06:46:52;;;;;;;4.13;2.72;;;16.30;99.90;;;;;;5033131;28;20132;-75
2023/07/19 06:49:19;;;;;;;3.72;2.42;;;16.30;99.90;;;;;;5023385;28;20501;-75
2023/07/19 06:51:45;;;;;;;5.25;2.42;;;16.30;99.90;;;;;;5012101;28;20168;-74
2023/07/19 06:54:11;;;;;;;4.40;2.75;;;16.30;99.90;;;;;;5032274;28;20040;-75
2023/07/19 06:56:37;;;;;;;4.60;2.50;;;16.30;99.90;;;;;;5048774;28;20049;-74
2023/07/19 06:59:02;;;;;;;4.50;2.20;;;16.40;99.90;;;;;;5016704;28;20052;-74
2023/07/19 07:01:28;;;;;;;6.45;2.80;;;16.40;99.90;;;;;;5016679;28;20037;-74
2023/07/19 07:03:54;;;;;;;3.47;2.50;;;16.40;99.90;;;;;;5025413;28;20041;-74
2023/07/19 07:06:19;;;;;;;5.43;2.92;;;16.40;99.90;;;;;;5013500;28;20046;-75
2023/07/19 07:08:45;;;;;;;3.60;2.45;;;16.40;99.90;;;;;;5013372;28;20081;-77
2023/07/19 07:11:11;;;;;;;4.57;2.40;;;16.50;99.90;;;;;;5027453;28;20041;-74
2023/07/19 07:13:36;;;;;;;4.10;2.40;;;16.60;99.90;;;;;;5011532;28;20048;-74
2023/07/19 07:16:02;;;;;;;4.30;2.50;;;16.70;99.90;;;;;;5019130;28;20042;-75
2023/07/19 07:18:28;;;;;;;4.43;2.05;;;16.80;99.90;;;;;;5034070;28;20463;-75
2023/07/19 07:20:55;;;;;;;4.15;2.55;;;16.90;99.90;;;;;;5040440;28;20036;-75
2023/07/19 07:23:21;;;;;;;5.22;2.53;;;17.00;99.90;;;;;;5015117;28;20038;-74
2023/07/19 07:25:54;;;;;;;3.97;2.33;;;17.00;99.90;;;;;;5028299;28;20049;-74
2023/07/19 07:28:20;;;;;;;5.00;2.35;;;17.10;99.90;;;;;;5028260;28;20133;-78
2023/07/19 07:30:46;;;;;;;3.55;2.05;;;17.30;99.90;;;;;;5031800;28;20042;-77
2023/07/19 07:33:11;;;;;;;4.03;2.50;;;17.40;99.90;;;;;;5024241;28;20115;-79
2023/07/19 07:35:37;;;;;;;4.20;2.00;;;17.50;99.90;;;;;;5017225;28;20069;-77
2023/07/19 07:38:03;;;;;;;2.92;1.65;;;17.60;99.90;;;;;;5030971;28;20049;-78
2023/07/19 07:40:29;;;;;;;3.83;2.10;;;17.60;99.90;;;;;;5033218;28;20072;-76
2023/07/19 07:42:55;;;;;;;3.28;1.92;;;17.70;99.90;;;;;;5028606;28;20073;-80
2023/07/19 07:45:21;;;;;;;4.05;2.17;;;17.70;99.90;;;;;;5027255;28;20080;-78
2023/07/19 07:47:47;;;;;;;2.50;1.52;;;17.70;99.90;;;;;;5042972;28;20038;-78
2023/07/19 07:50:13;;;;;;;3.30;1.48;;;17.60;99.90;;;;;;5039000;28;20103;-78
2023/07/19 07:52:39;;;;;;;3.60;1.85;;;17.60;99.90;;;;;;5017877;28;20050;-76
2023/07/19 07:55:06;;;;;;;2.70;1.50;;;17.60;99.90;;;;;;5034245;28;20045;-75
2023/07/19 07:57:37;;;;;;;3.95;1.40;;;17.60;99.90;;;;;;5020479;28;20179;-73
2023/07/19 08:00:06;;;;;;;3.03;1.70;;;17.70;99.90;;;;;;5017462;28;20053;-72
2023/07/19 08:02:32;;;;;;;3.13;1.30;;;17.80;99.90;;;;;;5021123;28;20045;-76
2023/07/19 08:04:58;;;;;;;3.13;1.30;;;17.90;99.90;;;;;;5019100;28;20038;-71
2023/07/19 08:07:25;;;;;;;4.25;1.45;;;17.80;99.90;;;;;;5029683;28;20054;-73
2023/07/19 08:09:52;;;;;;;4.35;1.60;;;17.90;99.90;;;;;;5027338;28;20042;-72
2023/07/19 08:12:19;;;;;;;3.10;1.60;;;18.00;99.90;;;;;;5024630;28;20071;-71
2023/07/19 08:14:45;;;;;;;4.55;1.42;;;18.00;99.90;;;;;;5036463;28;20045;-73
2023/07/19 08:17:11;;;;;;;2.55;1.33;;;18.10;99.90;;;;;;5020569;28;20053;-71
2023/07/19 08:19:36;;;;;;;3.13;1.58;;;18.10;99.90;;;;;;5022362;28;20479;-74
2023/07/19 08:22:04;;;;;;;2.60;1.48;;;18.10;99.90;;;;;;5033527;28;20044;-73
2023/07/19 08:24:31;;;;;;;4.15;1.55;;;18.20;99.90;;;;;;5022162;28;20041;-73
2023/07/19 08:26:57;;;;;;;2.65;1.38;;;18.20;99.90;;;;;;5035072;28;20041;-73
2023/07/19 08:29:25;;;;;;;2.67;1.50;;;18.30;99.90;;;;;;5019040;28;20037;-73
2023/07/19 08:31:51;;;;;;;4.55;1.73;;;18.30;99.90;;;;;;5034735;28;20042;-73
2023/07/19 08:34:17;;;;;;;4.25;1.70;;;18.40;99.90;;;;;;5020923;28;20037;-72
2023/07/19 08:36:43;;;;;;;2.40;1.50;;;18.50;99.90;;;;;;5026813;28;20085;-72
2023/07/19 08:39:08;;;;;;;3.25;2.03;;;18.50;99.90;;;;;;5027880;28;20483;-74
2023/07/19 08:41:35;;;;;;;3.60;1.60;;;18.60;99.90;;;;;;5025843;28;20045;-73
2023/07/19 08:44:01;;;;;;;3.33;1.70;;;18.50;99.90;;;;;;5024113;28;20109;-73
2023/07/19 08:46:28;;;;;;;3.50;1.80;;;18.60;99.90;;;;;;5046600;28;20116;-72
2023/07/19 08:48:53;;;;;;;2.72;1.40;;;18.70;99.90;;;;;;5019816;28;20038;-73
2023/07/19 08:51:19;;;;;;;3.00;1.58;;;18.70;99.90;;;;;;5033004;28;20047;-72
2023/07/19 08:53:45;;;;;;;3.85;1.65;;;18.80;99.90;;;;;;5029926;28;20096;-72
2023/07/19 08:56:12;;;;;;;2.67;1.67;;;18.80;99.90;;;;;;5023336;28;20121;-73
2023/07/19 08:58:39;;;;;;;3.13;1.80;;;18.80;99.90;;;;;;5018250;28;20486;-73
2023/07/19 09:01:09;;;;;;;3.92;1.70;;;18.70;99.90;;;;;;5043115;28;20038;-73
2023/07/19 09:03:34;;;;;;;3.80;1.77;;;18.70;99.90;;;;;;5021248;28;20080;-73
2023/07/19 09:06:01;;;;;;;3.38;1.70;;;18.70;99.90;;;;;;5015281;28;20229;-73
2023/07/19 09:08:40;;;;;;;3.15;2.25;;;18.70;99.90;;;;;;5015762;28;20394;-72
2023/07/19 09:11:06;;;;;;;2.97;1.70;;;18.80;99.90;;;;;;5022292;28;20077;-73
2023/07/19 09:13:33;;;;;;;2.75;1.40;;;18.80;99.90;;;;;;5018245;28;20418;-74
2023/07/19 09:16:02;;;;;;;3.67;1.60;;;18.80;99.90;;;;;;5015512;28;20081;-74
2023/07/19 09:18:30;;;;;;;3.72;1.58;;;18.90;99.90;;;;;;5023307;28;20077;-73
2023/07/19 09:20:59;;;;;;;3.53;1.60;;;18.90;99.90;;;;;;5016343;28;20052;-74
2023/07/19 09:23:25;;;;;;;4.13;1.67;;;18.90;99.90;;;;;;5024449;28;20050;-76
2023/07/19 09:25:55;;;;;;;3.70;1.60;;;18.70;99.90;;;;;;5025180;28;20141;-76
2023/07/19 09:28:22;;;;;;;3.45;1.83;;;18.60;99.90;;;;;;5028491;28;20048;-75
2023/07/19 09:30:57;;;;;;;3.17;1.40;;;18.60;99.90;;;;;;5013547;28;20083;-73
2023/07/19 09:33:26;;;;;;;3.25;1.52;;;18.60;99.90;;;;;;5025614;28;20116;-74
2023/07/19 09:35:56;;;;;;;3.38;1.55;;;18.60;99.90;;;;;;5017389;28;20041;-73
2023/07/19 09:38:25;;;;;;;4.05;1.50;;;18.60;99.90;;;;;;5023923;28;20470;-74
2023/07/19 09:40:53;;;;;;;3.97;1.70;;;18.60;99.90;;;;;;5026415;28;20096;-74
2023/07/19 09:43:20;;;;;;;2.72;1.30;;;18.60;99.90;;;;;;5019685;28;20100;-77
2023/07/19 09:45:47;;;;;;;2.08;1.30;;;18.60;99.90;;;;;;5014805;28;20045;-75
2023/07/19 09:48:17;;;;;;;2.83;1.25;;;18.60;99.90;;;;;;5032674;28;20603;-74
2023/07/19 09:50:43;;;;;;;3.45;1.45;;;18.70;99.90;;;;;;5016078;28;20581;-74
2023/07/19 09:53:12;;;;;;;3.00;1.50;;;18.60;99.90;;;;;;5014419;28;20104;-74
2023/07/19 09:55:38;;;;;;;4.30;1.23;;;18.50;99.90;;;;;;5022578;28;20046;-75
2023/07/19 09:58:08;;;;;;;3.85;1.60;;;18.50;99.90;;;;;;5024993;28;20050;-74
2023/07/19 10:00:34;;;;;;;3.58;1.75;;;18.50;99.90;;;;;;5015201;28;20042;-75
2023/07/19 10:03:00;;;;;;;2.35;1.17;;;18.40;99.90;;;;;;5014364;28;20053;-75
2023/07/19 10:05:29;;;;;;;3.88;1.42;;;18.40;99.90;;;;;;5029022;28;20046;-73
2023/07/19 10:08:05;;;;;;;2.20;1.33;;;18.50;99.90;;;;;;5019635;28;20047;-73
2023/07/19 10:10:39;;;;;;;4.53;1.70;;;18.50;99.90;;;;;;5027714;28;20183;-73
2023/07/19 10:13:06;;;;;;;2.47;0.93;;;18.60;99.90;;;;;;5022944;28;20077;-74
2023/07/19 10:15:32;;;;;;;3.08;1.40;;;18.70;99.90;;;;;;5029944;28;20049;-77
2023/07/19 10:17:59;;;;;;;3.13;1.30;;;18.70;99.90;;;;;;5046113;28;20038;-75
2023/07/19 10:20:34;;;;;;;2.90;1.20;;;18.80;99.90;;;;;;5019173;28;20356;-75
2023/07/19 10:23:05;;;;;;;1.88;1.10;;;18.90;99.90;;;;;;5022897;28;20045;-75
2023/07/19 10:25:34;;;;;;;4.35;1.33;;;19.00;99.90;;;;;;5018127;28;20127;-76
2023/07/19 10:28:09;;;;;;;2.75;1.10;;;19.20;99.90;;;;;;5019512;28;20053;-76
2023/07/19 10:30:44;;;;;;;2.70;1.20;;;19.60;99.90;;;;;;5024774;28;20482;-75
2023/07/19 10:33:14;;;;;;;1.85;1.00;;;20.10;99.90;;;;;;5040310;28;20041;-76
2023/07/19 10:35:41;;;;;;;2.88;1.00;;;20.40;99.90;;;;;;5022866;28;20554;-77
2023/07/19 10:38:26;;;;;;;1.67;0.90;;;20.50;99.90;;;;;;5026697;28;20051;-77
2023/07/19 10:40:56;;;;;;;2.33;1.00;;;20.40;99.90;;;;;;5025447;28;20099;-75
2023/07/19 10:43:23;;;;;;;1.98;1.02;;;20.30;99.90;;;;;;5024757;28;20064;-76
2023/07/19 10:45:49;;;;;;;2.92;1.00;;;20.20;99.90;;;;;;5024217;28;20045;-76
2023/07/19 10:48:14;;;;;;;2.28;0.90;;;20.20;99.90;;;;;;5022676;28;20046;-76
2023/07/19 10:50:44;;;;;;;2.20;0.93;;;20.30;99.90;;;;;;5032516;28;20042;-74
2023/07/19 10:53:10;;;;;;;3.38;1.00;;;20.30;99.90;;;;;;5018293;28;20481;-75
2023/07/19 10:55:36;;;;;;;2.15;1.00;;;20.30;99.90;;;;;;5021277;28;20049;-72
2023/07/19 10:58:01;;;;;;;2.42;0.80;;;20.40;99.90;;;;;;5033555;28;20488;-73
2023/07/19 11:00:27;;;;;;;2.42;0.80;;;20.50;99.90;;;;;;5033270;28;20560;-74
2023/07/19 11:02:53;;;;;;;2.60;0.90;;;20.60;99.90;;;;;;5020442;28;20057;-72
2023/07/19 11:05:20;;;;;;;2.10;0.90;;;20.60;99.90;;;;;;5038772;28;20103;-73
2023/07/19 11:07:51;;;;;;;2.42;1.05;;;20.40;99.90;;;;;;5027965;28;20041;-74
2023/07/19 11:10:17;;;;;;;2.70;1.00;;;20.30;99.90;;;;;;5021088;28;20041;-74
2023/07/19 11:12:43;;;;;;;2.03;0.80;;;20.10;99.90;;;;;;5011386;28;20494;-73
2023/07/19 11:15:09;;;;;;;2.05;0.80;;;20.00;99.90;;;;;;5013821;28;20042;-73
2023/07/19 11:17:37;;;;;;;1.67;0.90;;;19.80;99.90;;;;;;5033809;28;20056;-73
2023/07/19 11:20:04;;;;;;;1.58;0.82;;;19.80;99.90;;;;;;5017095;28;20513;-74
2023/07/19 11:22:29;;;;;;;2.03;0.90;;;19.70;99.90;;;;;;5038541;28;20049;-74
2023/07/19 11:24:56;;;;;;;1.83;0.90;;;19.50;99.90;;;;;;5017391;28;20462;-76
2023/07/19 11:27:42;;;;;;;1.80;0.73;;;19.40;99.90;;;;;;5031328;28;20044;-72
2023/07/19 11:30:08;;;;;;;2.13;0.98;;;19.40;99.90;;;;;;5018316;28;20473;-74
2023/07/19 11:32:34;;;;;;;1.60;0.82;;;19.20;99.90;;;;;;5021997;28;20128;-73
2023/07/19 11:35:01;;;;;;;2.53;1.20;;;19.00;99.90;;;;;;5021365;28;20122;-73
2023/07/19 11:37:28;;;;;;;1.88;1.00;;;18.70;99.90;;;;;;5025208;28;20033;-73
2023/07/19 11:39:58;;;;;;;2.38;0.90;;;18.30;99.90;;;;;;5036914;28;20038;-73
2023/07/19 11:42:47;;;;;;;2.40;0.85;;;18.00;99.90;;;;;;5016859;28;20040;-74
2023/07/19 11:45:23;;;;;;;1.55;0.75;;;17.70;99.90;;;;;;5023152;28;20042;-75
2023/07/19 11:47:50;;;;;;;2.75;0.85;;;17.50;99.90;;;;;;5013737;28;20052;-78
2023/07/19 11:50:16;;;;;;;1.52;0.80;;;17.40;99.90;;;;;;5019966;28;20037;-77
2023/07/19 11:53:00;;;;;;;1.23;0.68;;;17.20;99.90;;;;;;5020507;28;20485;-75
2023/07/19 11:55:26;;;;;;;1.85;0.82;;;17.10;99.90;;;;;;5019449;28;20049;-74
2023/07/19 11:57:53;;;;;;;1.98;0.90;;;17.00;99.90;;;;;;5020879;28;20100;-74
2023/07/19 12:00:21;;;;;;;2.55;0.90;;;17.00;99.90;;;;;;5023919;28;20435;-75
2023/07/19 12:02:48;;;;;;;3.60;1.05;;;17.00;99.90;;;;;;4997125;28;20390;-74
2023/07/19 12:05:19;;;;;;;2.30;1.02;;;17.00;99.90;;;;;;5037759;28;20128;-73
2023/07/19 12:07:47;;;;;;;1.83;1.00;;;17.00;99.90;;;;;;5022277;28;20042;-73
2023/07/19 12:10:13;;;;;;;4.20;1.25;;;17.00;99.90;;;;;;5019574;28;20120;-74
2023/07/19 12:12:39;;;;;;;3.05;1.45;;;17.10;99.90;;;;;;5015201;28;20136;-75
2023/07/19 12:15:09;;;;;;;2.83;1.15;;;17.30;99.90;;;;;;5017095;28;20471;-74
2023/07/19 12:17:36;;;;;;;1.98;1.20;;;17.50;99.90;;;;;;5020850;28;20053;-75
2023/07/19 12:20:06;;;;;;;2.58;0.98;;;17.70;99.90;;;;;;5015521;28;20128;-74
2023/07/19 12:22:34;;;;;;;2.40;0.93;;;18.00;99.90;;;;;;5023224;28;20377;-74
2023/07/19 12:25:00;;;;;;;1.98;0.88;;;18.10;99.90;;;;;;5020153;28;20033;-73
2023/07/19 12:27:26;;;;;;;1.58;0.82;;;18.30;99.90;;;;;;5018887;28;20292;-74
2023/07/19 12:29:52;;;;;;;2.35;0.98;;;18.40;99.90;;;;;;5014602;28;20060;-75
2023/07/19 12:32:18;;;;;;;1.95;0.82;;;18.60;99.90;;;;;;5016714;28;20088;-73
2023/07/19 12:34:47;;;;;;;2.88;0.93;;;18.70;99.90;;;;;;5021571;28;20089;-75
2023/07/19 12:37:13;;;;;;;2.50;1.10;;;18.70;99.90;;;;;;5031403;28;20045;-73
2023/07/19 12:39:42;;;;;;;3.40;1.25;;;18.80;99.90;;;;;;5016186;28;20041;-71
2023/07/19 12:42:09;;;;;;;2.30;1.13;;;18.80;99.90;;;;;;5013551;28;20094;-73
2023/07/19 12:44:36;;;;;;;4.57;1.67;;;18.80;99.90;;;;;;5013544;28;20473;-71